Time;durP1;ratioP1;P1;durP2;ratioP2;P2;SDS_P1;SDS_P2;PMS_P1;PMS_P2;Temp;Humidity;BMP_temperature;BMP_pressure;BME280_temperature;BME280_humidity;BME280_pressure;Samples;Min_cycle;Max_cycle;Signal;HPM_P1;HPM_P2
2022/12/12 00:00:16;;;;;;;4.37;3.95;;;;;;;3.71;100.00;97929.67;1765669;79;21021;-79
2022/12/12 00:02:43;;;;;;;6.08;5.47;;;;;;;3.72;100.00;97938.73;1787260;79;20992;-82
2022/12/12 00:05:13;;;;;;;6.90;6.20;;;;;;;3.71;100.00;97933.13;1764223;79;21024;-79
2022/12/12 00:07:40;;;;;;;6.45;4.60;;;;;;;3.71;100.00;97937.64;1732263;79;21070;-77
2022/12/12 00:10:08;;;;;;;7.55;6.75;;;;;;;3.66;100.00;97934.41;1794509;79;22018;-83
2022/12/12 00:12:34;;;;;;;5.13;4.73;;;;;;;3.61;100.00;97919.72;1787952;79;20998;-77
2022/12/12 00:15:01;;;;;;;4.87;4.47;;;;;;;3.59;100.00;97923.17;1751414;80;21031;-78
2022/12/12 00:17:29;;;;;;;6.67;6.10;;;;;;;3.58;100.00;97936.70;1752328;80;21019;-81
2022/12/12 00:19:56;;;;;;;5.67;4.95;;;;;;;3.54;100.00;97939.58;1781449;80;20972;-82
2022/12/12 00:22:22;;;;;;;5.50;5.00;;;;;;;3.53;100.00;97959.23;1779843;80;22291;-81
2022/12/12 00:24:48;;;;;;;5.30;4.80;;;;;;;3.54;100.00;97954.20;1769010;80;21067;-81
2022/12/12 00:27:15;;;;;;;5.47;5.00;;;;;;;3.55;100.00;97954.48;1768887;80;21044;-80
2022/12/12 00:29:41;;;;;;;6.12;5.53;;;;;;;3.53;100.00;97963.21;1717122;83;21664;-73
2022/12/12 00:32:08;;;;;;;5.05;4.65;;;;;;;3.51;100.00;97958.13;1759607;80;21023;-76
2022/12/12 00:34:34;;;;;;;5.08;4.65;;;;;;;3.49;100.00;97955.74;1750740;80;21088;-76
2022/12/12 00:37:01;;;;;;;5.42;4.92;;;;;;;3.48;100.00;97963.43;1751537;80;21001;-74
2022/12/12 00:39:28;;;;;;;5.40;4.97;;;;;;;3.47;100.00;97971.12;1772953;80;21552;-79
2022/12/12 00:41:56;;;;;;;5.20;4.80;;;;;;;3.43;100.00;97971.34;1750396;81;20928;-78
2022/12/12 00:44:23;;;;;;;5.92;5.03;;;;;;;3.49;100.00;97970.88;1749863;82;21036;-79
2022/12/12 00:46:49;;;;;;;5.53;5.03;;;;;;;3.54;100.00;97972.27;1754640;80;21145;-82
2022/12/12 00:49:16;;;;;;;5.58;5.10;;;;;;;3.54;100.00;97963.50;1750858;80;21040;-80
2022/12/12 00:51:43;;;;;;;7.28;4.92;;;;;;;3.49;100.00;97962.39;1750397;81;21030;-79
2022/12/12 00:54:10;;;;;;;6.17;4.58;;;;;;;3.43;100.00;97963.36;1750594;82;20919;-82
2022/12/12 00:56:38;;;;;;;8.58;7.80;;;;;;;3.37;100.00;97963.02;1752068;80;21026;-75
2022/12/12 00:59:05;;;;;;;5.92;5.42;;;;;;;3.35;100.00;97972.29;1763836;80;21134;-80
2022/12/12 01:01:33;;;;;;;5.40;4.90;;;;;;;3.35;100.00;97967.78;1753948;80;20960;-83
2022/12/12 01:04:00;;;;;;;5.05;4.65;;;;;;;3.38;100.00;97973.12;1751417;80;21015;-82
2022/12/12 01:06:28;;;;;;;6.33;4.75;;;;;;;3.40;100.00;97965.20;1760087;80;21007;-81
2022/12/12 01:08:56;;;;;;;4.85;4.45;;;;;;;3.40;100.00;97957.23;1751693;80;20996;-76
2022/12/12 01:11:23;;;;;;;5.80;4.97;;;;;;;3.36;100.00;97961.92;1750950;80;21512;-77
2022/12/12 01:13:51;;;;;;;4.45;4.05;;;;;;;3.31;100.00;97953.91;1754927;81;20955;-76
2022/12/12 01:16:18;;;;;;;4.45;4.05;;;;;;;3.24;100.00;97950.61;1779424;79;21602;-77
2022/12/12 01:18:45;;;;;;;4.72;4.33;;;;;;;3.17;100.00;97957.94;1764516;81;20988;-77
2022/12/12 01:21:14;;;;;;;4.72;4.33;;;;;;;3.12;100.00;97945.95;1770263;79;21038;-79
2022/12/12 01:23:40;;;;;;;5.30;4.80;;;;;;;3.06;100.00;97941.89;1796676;79;21140;-75
2022/12/12 01:26:11;;;;;;;4.42;4.03;;;;;;;3.00;100.00;97934.89;1790240;79;21008;-74
2022/12/12 01:28:38;;;;;;;4.90;4.40;;;;;;;3.00;100.00;97948.17;1772621;79;21547;-75
2022/12/12 01:31:06;;;;;;;5.05;4.65;;;;;;;2.99;100.00;97950.53;1782310;79;21496;-74
2022/12/12 01:33:32;;;;;;;4.83;4.42;;;;;;;2.98;100.00;97958.73;1732866;82;20971;-77
2022/12/12 01:35:59;;;;;;;5.50;5.00;;;;;;;2.96;100.00;97968.30;1766893;79;21233;-74
2022/12/12 01:38:27;;;;;;;5.78;5.30;;;;;;;2.96;100.00;97970.95;1776131;79;21531;-74
2022/12/12 01:40:54;;;;;;;5.75;5.25;;;;;;;2.95;100.00;97971.98;1774935;79;21551;-77
2022/12/12 01:43:21;;;;;;;5.17;4.67;;;;;;;2.97;100.00;97975.73;1795783;79;21040;-72
2022/12/12 01:46:03;;;;;;;5.70;5.20;;;;;;;2.98;100.00;97983.44;1729061;81;21552;-77
2022/12/12 01:48:40;;;;;;;5.20;4.75;;;;;;;3.02;100.00;97982.45;1771444;79;21226;-82
2022/12/12 01:51:11;;;;;;;5.75;5.25;;;;;;;3.03;100.00;97979.53;1776945;79;21483;-75
2022/12/12 01:53:38;;;;;;;5.40;5.00;;;;;;;2.98;100.00;97974.14;1789223;79;20959;-75
2022/12/12 01:56:08;;;;;;;6.62;6.08;;;;;;;2.96;100.00;97977.59;1782548;79;21308;-75
2022/12/12 01:58:35;;;;;;;6.87;6.20;;;;;;;2.96;100.00;97983.41;1768968;79;21086;-75
2022/12/12 02:01:02;;;;;;;5.15;4.70;;;;;;;2.93;100.00;97986.02;1775508;79;21044;-75
2022/12/12 02:03:28;;;;;;;6.83;6.20;;;;;;;2.89;100.00;97970.81;1795644;79;20944;-74
2022/12/12 02:05:58;;;;;;;5.28;4.83;;;;;;;2.84;100.00;97964.91;1788639;79;20971;-74
2022/12/12 02:08:24;;;;;;;5.85;5.25;;;;;;;2.84;100.00;97976.05;1734426;81;20978;-75
2022/12/12 02:10:51;;;;;;;5.80;5.28;;;;;;;2.82;100.00;97975.50;1769070;79;21031;-74
2022/12/12 02:13:23;;;;;;;5.75;5.25;;;;;;;2.76;100.00;97985.23;1771648;79;21318;-76
2022/12/12 02:15:55;;;;;;;5.33;4.85;;;;;;;2.70;100.00;97984.85;1761043;80;22177;-77
2022/12/12 02:18:39;;;;;;;5.80;5.30;;;;;;;2.59;100.00;97953.91;1764422;80;21547;-74
2022/12/12 02:21:41;;;;;;;5.37;4.87;;;;;;;2.53;100.00;97949.56;1764761;80;22180;-75
2022/12/12 02:24:56;;;;;;;5.40;4.90;;;;;;;2.47;100.00;97944.69;1757921;81;20980;-74
2022/12/12 02:27:43;;;;;;;5.85;5.35;;;;;;;2.42;100.00;97948.58;1753196;80;21542;-75
2022/12/12 02:30:23;;;;;;;6.37;5.78;;;;;;;2.38;100.00;97970.52;1694988;84;21610;-74
2022/12/12 02:33:13;;;;;;;5.67;5.17;;;;;;;2.31;100.00;97974.64;1749250;80;20987;-75
2022/12/12 02:36:17;;;;;;;5.40;4.92;;;;;;;2.24;100.00;97983.28;1764661;81;20970;-76
2022/12/12 02:39:11;;;;;;;5.65;5.15;;;;;;;2.21;100.00;97968.38;1764711;81;21003;-75
2022/12/12 02:41:43;;;;;;;5.25;4.85;;;;;;;2.13;100.00;97946.50;1738726;81;21253;-76
2022/12/12 02:44:31;;;;;;;5.30;4.90;;;;;;;2.06;100.00;97938.42;1762886;81;21064;-73
2022/12/12 02:47:18;;;;;;;4.70;4.30;;;;;;;2.01;100.00;97933.02;1765498;81;21037;-74
2022/12/12 02:50:04;;;;;;;4.85;4.53;;;;;;;1.94;100.00;97916.45;1764174;81;21075;-76
2022/12/12 02:52:31;;;;;;;4.17;3.87;;;;;;;1.90;100.00;97918.78;1734780;81;21677;-82
2022/12/12 02:54:58;;;;;;;5.33;4.92;;;;;;;1.86;100.00;97903.07;1761942;81;21225;-79
2022/12/12 02:57:25;;;;;;;4.95;4.50;;;;;;;1.84;100.00;97917.58;1727996;82;20996;-79
2022/12/12 03:00:02;;;;;;;4.53;4.03;;;;;;;1.85;100.00;97935.10;1735044;81;20975;-87
2022/12/12 03:09:56;;;;;;;5.10;4.70;;;;;;;1.73;100.00;97974.88;1745786;81;21332;-81
2022/12/12 03:12:49;;;;;;;4.92;4.53;;;;;;;1.72;100.00;97990.00;1719527;82;21098;-81
2022/12/12 03:15:27;;;;;;;5.00;4.60;;;;;;;1.77;100.00;97985.84;1765410;81;21005;-79
2022/12/12 03:18:08;;;;;;;5.55;5.15;;;;;;;1.80;100.00;97984.03;1765504;79;21555;-77
2022/12/12 03:20:46;;;;;;;4.83;4.42;;;;;;;1.81;100.00;97983.00;1792255;79;21493;-76
2022/12/12 03:23:14;;;;;;;5.65;5.12;;;;;;;1.79;100.00;97996.47;1746498;80;21319;-77
2022/12/12 03:25:53;;;;;;;5.40;5.00;;;;;;;1.70;100.00;97975.36;1797379;79;21003;-71
2022/12/12 03:28:46;;;;;;;6.78;6.17;;;;;;;1.58;100.00;97975.38;1796756;79;20988;-72
2022/12/12 03:31:13;;;;;;;5.42;4.92;;;;;;;1.47;100.00;97972.77;1775241;79;21508;-71
2022/12/12 03:33:47;;;;;;;6.40;5.22;;;;;;;1.42;100.00;97997.83;1790094;79;21016;-70
2022/12/12 03:36:24;;;;;;;5.10;4.67;;;;;;;1.41;100.00;98024.02;1776908;79;21219;-80
2022/12/12 03:38:55;;;;;;;5.75;5.22;;;;;;;1.41;100.00;98022.69;1764303;81;21605;-81
2022/12/12 03:41:38;;;;;;;7.00;6.30;;;;;;;1.40;100.00;97999.89;1774958;79;21053;-76
2022/12/12 03:44:12;;;;;;;6.37;5.78;;;;;;;1.38;100.00;98004.63;1778462;79;21110;-82
2022/12/12 03:46:43;;;;;;;6.53;5.92;;;;;;;1.31;100.00;98023.27;1680003;82;21087;-76
2022/12/12 03:49:19;;;;;;;6.12;5.58;;;;;;;1.25;100.00;98037.43;1796082;79;21192;-79
2022/12/12 03:51:54;;;;;;;6.78;6.17;;;;;;;1.21;100.00;98028.34;1780428;79;21003;-77
2022/12/12 03:54:28;;;;;;;6.78;6.12;;;;;;;1.15;100.00;98033.25;1789543;79;20935;-78
2022/12/12 03:57:06;;;;;;;7.37;6.70;;;;;;;1.12;100.00;98035.02;1760045;81;21107;-77
2022/12/12 03:59:45;;;;;;;7.62;6.17;;;;;;;1.14;100.00;98032.45;1729437;82;21586;-78
2022/12/12 04:02:17;;;;;;;6.78;6.08;;;;;;;1.14;100.00;98021.05;1719898;82;22951;-80
2022/12/12 04:05:04;;;;;;;7.58;6.78;;;;;;;1.11;100.00;98038.18;1705899;81;20994;-81
2022/12/12 04:07:41;;;;;;;8.13;7.05;;;;;;;1.07;100.00;98051.59;1745150;82;21682;-80
2022/12/12 04:13:05;;;;;;;9.63;6.80;;;;;;;1.03;100.00;98074.77;1739215;81;22464;-77
2022/12/12 04:15:56;;;;;;;8.05;7.35;;;;;;;1.03;100.00;98076.09;1773638;80;21070;-84
2022/12/12 04:18:34;;;;;;;7.78;6.78;;;;;;;1.03;100.00;98072.94;1686227;82;21030;-79
2022/12/12 04:24:30;;;;;;;9.03;8.08;;;;;;;1.03;100.00;98035.07;1765236;79;21531;-77
2022/12/12 04:27:04;;;;;;;7.45;6.75;;;;;;;0.98;100.00;98020.39;1795791;79;21006;-74
2022/12/12 04:29:59;;;;;;;7.85;7.08;;;;;;;0.95;100.00;98019.54;1795833;79;21146;-73
2022/12/12 04:32:39;;;;;;;10.88;8.28;;;;;;;0.92;100.00;98024.76;1782017;79;20972;-74
2022/12/12 04:35:22;;;;;;;9.40;7.75;;;;;;;0.89;100.00;98030.52;1765745;79;20996;-74
2022/12/12 04:37:55;;;;;;;9.03;8.00;;;;;;;0.91;100.00;98027.14;1704649;84;21064;-74
2022/12/12 04:40:32;;;;;;;8.00;7.03;;;;;;;0.91;100.00;98038.23;1709486;82;21043;-73
2022/12/12 04:43:08;;;;;;;7.58;6.78;;;;;;;0.94;100.00;98060.27;1740324;81;21831;-73
2022/12/12 04:45:38;;;;;;;8.20;7.40;;;;;;;0.94;100.00;98047.84;1780482;80;21011;-73
2022/12/12 04:48:07;;;;;;;8.60;7.62;;;;;;;0.91;100.00;98039.56;1781774;80;21533;-81
2022/12/12 04:50:33;;;;;;;8.20;7.15;;;;;;;0.92;100.00;98050.41;1781025;80;21051;-78
2022/12/12 04:53:03;;;;;;;8.10;7.30;;;;;;;0.90;100.00;98051.17;1777696;79;21036;-78
2022/12/12 04:55:40;;;;;;;9.40;8.43;;;;;;;0.91;100.00;98060.22;1764237;81;21087;-79
2022/12/12 04:58:07;;;;;;;10.00;8.05;;;;;;;0.92;100.00;98039.83;1723467;80;21506;-78
2022/12/12 05:00:52;;;;;;;9.30;8.20;;;;;;;0.94;100.00;98039.09;1766253;79;21035;-76
2022/12/12 05:03:33;;;;;;;9.65;7.92;;;;;;;0.92;100.00;98035.86;1790040;79;20921;-80
2022/12/12 05:06:01;;;;;;;9.33;8.43;;;;;;;0.92;100.00;98051.73;1772820;79;21551;-79
2022/12/12 05:08:37;;;;;;;13.40;9.13;;;;;;;0.91;100.00;98050.95;1741626;79;21247;-79
2022/12/12 05:11:04;;;;;;;8.78;7.90;;;;;;;0.91;100.00;98053.60;1797277;79;21338;-73
2022/12/12 05:13:35;;;;;;;9.75;8.75;;;;;;;0.90;100.00;98048.02;1765609;79;20999;-84
2022/12/12 05:16:05;;;;;;;9.03;6.80;;;;;;;0.93;100.00;98045.41;1741126;81;20943;-80
2022/12/12 05:18:33;;;;;;;8.13;7.33;;;;;;;0.95;100.00;98063.20;1730710;82;21027;-76
2022/12/12 05:20:59;;;;;;;7.62;6.62;;;;;;;0.97;100.00;98070.38;1731051;82;21766;-76
2022/12/12 05:23:25;;;;;;;8.05;7.35;;;;;;;0.98;100.00;98068.84;1713179;81;21560;-77
2022/12/12 05:25:52;;;;;;;7.37;6.67;;;;;;;0.99;100.00;98074.43;1741369;81;21006;-75
2022/12/12 05:28:18;;;;;;;8.28;7.28;;;;;;;0.99;100.00;98078.41;1679037;82;21066;-79
2022/12/12 05:30:44;;;;;;;8.60;7.75;;;;;;;0.97;100.00;98073.03;1730190;82;21039;-78
2022/12/12 05:33:11;;;;;;;8.23;7.00;;;;;;;0.94;100.00;98074.31;1747565;81;21186;-77
2022/12/12 05:35:37;;;;;;;7.28;6.60;;;;;;;0.93;100.00;98081.14;1760175;81;21043;-74
2022/12/12 05:38:05;;;;;;;7.22;6.53;;;;;;;0.94;100.00;98086.73;1760903;81;21546;-77
2022/12/12 05:40:33;;;;;;;8.35;7.47;;;;;;;0.93;100.00;98092.53;1732201;81;21015;-82
2022/12/12 05:42:59;;;;;;;8.35;7.25;;;;;;;0.97;100.00;98106.92;1751613;81;21511;-83
2022/12/12 05:45:27;;;;;;;7.97;7.17;;;;;;;1.03;100.00;98107.34;1757137;81;21328;-82
2022/12/12 05:47:54;;;;;;;9.03;7.35;;;;;;;1.07;100.00;98107.69;1733293;81;21519;-77
2022/12/12 05:50:22;;;;;;;8.50;7.67;;;;;;;1.07;100.00;98122.25;1760967;81;20986;-80
2022/12/12 05:52:50;;;;;;;9.33;7.95;;;;;;;1.06;100.00;98117.47;1736834;82;21027;-80
2022/12/12 05:55:17;;;;;;;12.07;10.40;;;;;;;1.02;100.00;98107.05;1680078;84;21032;-79
2022/12/12 05:57:44;;;;;;;9.63;8.38;;;;;;;1.02;100.00;98099.62;1730641;82;21110;-79
2022/12/12 06:00:11;;;;;;;9.58;8.20;;;;;;;1.03;100.00;98109.99;1719366;82;21100;-79
2022/12/12 06:02:38;;;;;;;8.98;7.85;;;;;;;1.06;100.00;98108.72;1730794;81;21046;-79
2022/12/12 06:05:05;;;;;;;8.10;7.17;;;;;;;1.03;100.00;98114.48;1710660;81;21045;-77
2022/12/12 06:07:31;;;;;;;8.08;6.97;;;;;;;0.98;100.00;98118.31;1761879;81;21098;-77
2022/12/12 06:10:00;;;;;;;8.93;7.47;;;;;;;0.92;100.00;98130.61;1742472;81;21011;-78
2022/12/12 06:12:26;;;;;;;6.78;6.15;;;;;;;0.91;100.00;98139.61;1718952;82;21051;-76
2022/12/12 06:14:53;;;;;;;8.25;6.70;;;;;;;0.93;100.00;98145.98;1738078;81;21043;-76
2022/12/12 06:17:19;;;;;;;9.53;7.47;;;;;;;0.92;100.00;98139.06;1763776;81;20995;-76
2022/12/12 06:19:45;;;;;;;7.90;6.50;;;;;;;0.89;100.00;98148.27;1756766;81;21018;-76
2022/12/12 06:22:12;;;;;;;6.78;6.05;;;;;;;0.88;100.00;98158.56;1749498;81;21029;-77
2022/12/12 06:24:39;;;;;;;7.20;5.72;;;;;;;0.81;100.00;98160.52;1738731;81;21039;-76
2022/12/12 06:27:05;;;;;;;7.20;5.92;;;;;;;0.75;100.00;98163.53;1733401;81;21582;-80
2022/12/12 06:29:32;;;;;;;8.35;6.40;;;;;;;0.73;100.00;98155.52;1731907;82;21043;-77
2022/12/12 06:32:02;;;;;;;8.08;6.08;;;;;;;0.71;100.00;98158.41;1755161;81;21051;-79
2022/12/12 06:34:28;;;;;;;5.08;4.47;;;;;;;0.69;100.00;98167.06;1786864;80;21879;-79
2022/12/12 06:36:56;;;;;;;6.83;6.00;;;;;;;0.68;100.00;98161.98;1766133;80;21538;-78
2022/12/12 06:39:23;;;;;;;8.15;6.45;;;;;;;0.68;100.00;98175.22;1791261;80;21003;-80
2022/12/12 06:41:49;;;;;;;6.15;5.47;;;;;;;0.68;100.00;98167.28;1788678;79;20969;-77
2022/12/12 06:44:16;;;;;;;6.30;5.70;;;;;;;0.68;100.00;98165.45;1769608;80;21035;-78
2022/12/12 06:46:42;;;;;;;6.65;5.90;;;;;;;0.66;100.00;98171.49;1772973;80;21126;-79
2022/12/12 06:49:13;;;;;;;7.22;6.60;;;;;;;0.67;100.00;98171.76;1779909;80;21009;-81
2022/12/12 06:51:44;;;;;;;7.22;6.50;;;;;;;0.70;100.00;98173.17;1724115;82;21563;-83
2022/12/12 06:54:15;;;;;;;7.25;6.37;;;;;;;0.75;100.00;98181.24;1749240;81;21071;-77
2022/12/12 06:56:45;;;;;;;8.15;6.33;;;;;;;0.80;100.00;98171.61;1740944;81;21645;-79
2022/12/12 06:59:11;;;;;;;9.25;7.97;;;;;;;0.83;100.00;98171.14;1728819;82;21133;-78
2022/12/12 07:01:38;;;;;;;10.82;9.33;;;;;;;0.85;100.00;98181.52;1779491;80;21018;-77
2022/12/12 07:04:06;;;;;;;11.45;8.45;;;;;;;0.82;100.00;98183.27;1774587;80;20992;-83
2022/12/12 07:06:33;;;;;;;8.40;7.00;;;;;;;0.80;100.00;98199.39;1794685;80;20959;-78
2022/12/12 07:09:01;;;;;;;9.00;7.05;;;;;;;0.73;100.00;98202.63;1793619;79;21488;-79
2022/12/12 07:11:29;;;;;;;8.35;6.72;;;;;;;0.71;100.00;98213.15;1724440;81;21686;-79
2022/12/12 07:13:56;;;;;;;7.15;6.12;;;;;;;0.69;100.00;98212.04;1767242;80;21623;-81
2022/12/12 07:16:23;;;;;;;9.05;7.33;;;;;;;0.68;100.00;98210.42;1768315;79;21088;-85
2022/12/12 07:18:51;;;;;;;14.33;7.17;;;;;;;0.65;100.00;98206.91;1754783;79;21497;-82
2022/12/12 07:21:18;;;;;;;8.03;7.03;;;;;;;0.63;100.00;98206.31;1784635;79;21028;-77
2022/12/12 07:23:45;;;;;;;7.80;6.47;;;;;;;0.60;100.00;98205.44;1753289;79;21078;-78
2022/12/12 07:26:15;;;;;;;7.37;6.22;;;;;;;0.60;100.00;98212.56;1772769;79;21067;-80
2022/12/12 07:28:41;;;;;;;6.83;5.42;;;;;;;0.59;100.00;98208.30;1775809;79;20939;-76
2022/12/12 07:31:12;;;;;;;9.10;7.58;;;;;;;0.59;100.00;98210.94;1730203;81;21085;-76
2022/12/12 07:33:40;;;;;;;10.98;7.12;;;;;;;0.63;100.00;98201.53;1739565;81;21069;-76
2022/12/12 07:36:07;;;;;;;7.62;6.78;;;;;;;0.66;100.00;98203.23;1743937;81;21155;-74
2022/12/12 07:38:34;;;;;;;13.45;9.98;;;;;;;0.70;100.00;98206.23;1729709;81;21145;-74
2022/12/12 07:41:14;;;;;;;10.75;8.85;;;;;;;0.70;100.00;98206.23;1729008;81;21044;-75
2022/12/12 07:43:42;;;;;;;9.55;7.42;;;;;;;0.72;100.00;98226.67;1731694;81;21046;-78
2022/12/12 07:46:10;;;;;;;9.25;8.23;;;;;;;0.74;100.00;98234.67;1726623;82;21773;-76
2022/12/12 07:48:44;;;;;;;8.30;7.30;;;;;;;0.75;100.00;98242.91;1736721;81;20964;-77
2022/12/12 07:51:27;;;;;;;9.88;8.88;;;;;;;0.78;100.00;98249.06;1717109;81;21003;-76
2022/12/12 07:53:56;;;;;;;9.08;8.08;;;;;;;0.78;100.00;98264.94;1738323;81;21078;-72
2022/12/12 07:56:22;;;;;;;10.35;7.22;;;;;;;0.76;100.00;98263.05;1757516;81;21578;-73
2022/12/12 07:58:50;;;;;;;8.40;7.47;;;;;;;0.77;100.00;98266.48;1727457;83;20948;-73
2022/12/12 08:01:22;;;;;;;9.55;7.95;;;;;;;0.73;100.00;98275.89;1764299;81;21093;-74
2022/12/12 08:03:50;;;;;;;8.35;7.50;;;;;;;0.68;100.00;98271.27;1776715;79;21183;-72
2022/12/12 08:06:17;;;;;;;12.20;9.63;;;;;;;0.66;100.00;98276.50;1796358;79;21528;-73
2022/12/12 08:08:44;;;;;;;10.93;8.53;;;;;;;0.63;100.00;98288.31;1793619;79;21023;-73
2022/12/12 08:11:14;;;;;;;10.95;9.20;;;;;;;0.62;100.00;98284.59;1759227;80;21580;-72
2022/12/12 08:13:40;;;;;;;9.70;8.68;;;;;;;0.58;100.00;98278.91;1779527;79;21060;-72
2022/12/12 08:16:13;;;;;;;10.95;9.23;;;;;;;0.59;100.00;98273.10;1764795;80;21008;-74
2022/12/12 08:18:44;;;;;;;9.13;8.20;;;;;;;0.57;100.00;98275.98;1771062;80;22312;-76
2022/12/12 08:21:23;;;;;;;13.62;10.58;;;;;;;0.55;100.00;98275.90;1741988;81;21059;-78
2022/12/12 08:24:00;;;;;;;12.37;9.60;;;;;;;0.55;100.00;98275.39;1757549;80;21070;-80
2022/12/12 08:26:29;;;;;;;10.40;7.97;;;;;;;0.58;100.00;98292.13;1746867;81;21674;-79
2022/12/12 08:28:57;;;;;;;8.53;7.72;;;;;;;0.61;100.00;98280.31;1758490;80;20969;-76
2022/12/12 08:31:24;;;;;;;10.75;8.60;;;;;;;0.64;100.00;98277.22;1763513;80;21090;-76
2022/12/12 08:33:51;;;;;;;13.65;11.05;;;;;;;0.64;100.00;98260.84;1734077;81;21516;-81
2022/12/12 08:36:22;;;;;;;10.80;8.58;;;;;;;0.65;100.00;98263.78;1764703;80;21059;-82
2022/12/12 08:38:48;;;;;;;11.97;10.05;;;;;;;0.68;100.00;98272.59;1766044;80;21118;-83
2022/12/12 08:41:17;;;;;;;13.35;10.13;;;;;;;0.71;100.00;98277.97;1757071;80;21072;-78
2022/12/12 08:43:44;;;;;;;12.00;9.95;;;;;;;0.73;100.00;98271.92;1771388;80;21685;-82
2022/12/12 08:46:12;;;;;;;12.43;10.18;;;;;;;0.72;100.00;98279.59;1745092;81;21587;-78
2022/12/12 08:48:39;;;;;;;14.70;10.40;;;;;;;0.74;100.00;98283.61;1762184;80;21524;-78
2022/12/12 08:51:05;;;;;;;11.88;9.90;;;;;;;0.71;100.00;98280.09;1765474;80;21222;-73
2022/12/12 08:53:33;;;;;;;13.13;10.38;;;;;;;0.70;100.00;98286.92;1756670;80;21011;-74
2022/12/12 08:56:00;;;;;;;13.32;10.55;;;;;;;0.68;100.00;98287.14;1760774;81;20998;-73
2022/12/12 08:58:26;;;;;;;13.05;9.95;;;;;;;0.68;100.00;98296.91;1769434;80;21561;-72
2022/12/12 09:00:55;;;;;;;17.65;12.58;;;;;;;0.70;100.00;98285.09;1752303;80;21840;-77
2022/12/12 09:03:23;;;;;;;13.35;10.63;;;;;;;0.68;100.00;98291.62;1738028;81;21103;-73
2022/12/12 09:05:50;;;;;;;14.00;11.65;;;;;;;0.67;100.00;98303.25;1764955;81;20951;-75
2022/12/12 09:08:17;;;;;;;15.57;12.80;;;;;;;0.66;100.00;98294.50;1765329;80;20972;-73
2022/12/12 09:10:48;;;;;;;14.25;11.00;;;;;;;0.68;100.00;98301.69;1752359;80;21071;-73
2022/12/12 09:13:15;;;;;;;14.60;10.32;;;;;;;0.74;100.00;98286.77;1734419;81;22150;-73
2022/12/12 09:15:41;;;;;;;16.82;11.55;;;;;;;0.79;100.00;98286.41;1761109;81;21688;-72
2022/12/12 09:18:08;;;;;;;13.55;10.68;;;;;;;0.80;100.00;98297.30;1766517;80;21058;-74
2022/12/12 09:20:35;;;;;;;17.98;13.93;;;;;;;0.79;100.00;98311.55;1768136;80;21617;-73
2022/12/12 09:23:02;;;;;;;15.78;12.05;;;;;;;0.76;100.00;98309.86;1767305;80;21630;-73
2022/12/12 09:25:28;;;;;;;15.88;13.13;;;;;;;0.76;100.00;98296.13;1776912;80;21001;-73
2022/12/12 09:27:55;;;;;;;16.17;12.88;;;;;;;0.79;100.00;98290.38;1777152;80;21187;-74
2022/12/12 09:30:25;;;;;;;15.03;11.70;;;;;;;0.84;100.00;98295.00;1749284;80;21528;-76
2022/12/12 09:32:52;;;;;;;17.62;15.48;;;;;;;0.87;100.00;98295.36;1751854;80;20933;-74
2022/12/12 09:35:20;;;;;;;15.88;12.18;;;;;;;0.89;100.00;98299.12;1771167;80;20937;-75
2022/12/12 09:37:47;;;;;;;17.20;13.32;;;;;;;0.88;100.00;98301.47;1773117;80;21076;-75
2022/12/12 09:40:20;;;;;;;17.12;13.62;;;;;;;0.86;100.00;98312.27;1767909;80;21074;-75
2022/12/12 09:42:49;;;;;;;15.72;12.68;;;;;;;0.84;100.00;98311.69;1743697;80;26165;-73
2022/12/12 09:45:16;;;;;;;17.92;15.05;;;;;;;0.85;100.00;98319.12;1749702;80;21100;-72
2022/12/12 09:47:46;;;;;;;15.93;12.03;;;;;;;0.83;100.00;98320.66;1759136;80;21074;-74
2022/12/12 09:50:41;;;;;;;17.80;15.38;;;;;;;0.86;100.00;98325.49;1759523;80;21032;-79
2022/12/12 09:53:13;;;;;;;18.55;14.07;;;;;;;0.85;100.00;98334.48;1756273;80;21087;-79
2022/12/12 09:56:09;;;;;;;22.20;15.30;;;;;;;0.81;100.00;98345.73;1748275;80;21040;-76
2022/12/12 09:58:44;;;;;;;23.02;14.80;;;;;;;0.76;100.00;98350.88;1757391;80;20963;-72
2022/12/12 10:01:22;;;;;;;19.87;15.15;;;;;;;0.71;100.00;98369.23;1768814;80;21714;-72
2022/12/12 10:04:06;;;;;;;19.55;14.23;;;;;;;0.66;100.00;98362.47;1765388;80;21020;-71
2022/12/12 10:07:00;;;;;;;21.42;14.93;;;;;;;0.57;100.00;98367.75;1758736;79;32990;-75
2022/12/12 10:09:50;;;;;;;19.95;16.00;;;;;;;0.54;100.00;98372.95;1789619;79;21015;-76
2022/12/12 14:26:35;;;;;;;22.97;17.67;;;;;;;-0.42;100.00;98590.83;1858567;76;22601;-67
2022/12/12 14:29:25;;;;;;;21.37;14.98;;;;;;;-0.38;100.00;98586.24;1836525;77;20990;-71
2022/12/12 14:32:16;;;;;;;25.57;18.25;;;;;;;-0.28;100.00;98591.91;1853661;77;21135;-72
2022/12/12 14:35:07;;;;;;;21.20;16.70;;;;;;;-0.17;100.00;98589.14;1834429;77;20967;-76
2022/12/12 14:38:00;;;;;;;23.50;15.43;;;;;;;-0.06;100.00;98593.80;1816235;79;20991;-76
2022/12/12 14:40:30;;;;;;;21.15;15.80;;;;;;;0.02;100.00;98586.13;1815930;79;20983;-65
2022/12/12 14:43:13;;;;;;;20.15;15.18;;;;;;;0.05;100.00;98577.27;1816192;79;21740;-66
2022/12/12 14:45:50;;;;;;;18.12;13.48;;;;;;;0.09;100.00;98575.03;1815825;79;21821;-66
2022/12/12 14:48:31;;;;;;;19.80;15.13;;;;;;;0.10;100.00;98585.88;1821061;76;20967;-69
2022/12/12 14:51:19;;;;;;;20.72;14.18;;;;;;;0.10;100.00;98581.41;1819321;78;20935;-67
2022/12/12 14:53:50;;;;;;;19.60;15.20;;;;;;;0.12;100.00;98585.99;1817193;77;21010;-71
2022/12/12 14:56:39;;;;;;;20.88;14.60;;;;;;;0.10;100.00;98585.38;1847671;77;21070;-69
2022/12/12 14:59:21;;;;;;;20.40;15.13;;;;;;;0.11;100.00;98582.23;1843200;77;21965;-68
2022/12/12 15:01:51;;;;;;;18.17;14.13;;;;;;;0.10;100.00;98593.30;1853209;77;20873;-69
2022/12/12 15:04:24;;;;;;;20.37;14.53;;;;;;;0.07;100.00;98602.17;1850303;77;20960;-69
2022/12/12 15:06:56;;;;;;;20.95;13.78;;;;;;;0.05;100.00;98577.80;1856564;77;20998;-71
2022/12/12 15:09:30;;;;;;;23.05;16.17;;;;;;;0.08;100.00;98577.37;1859486;77;21007;-70
2022/12/12 15:12:13;;;;;;;19.90;14.53;;;;;;;0.11;100.00;98584.36;1806877;78;21201;-74
2022/12/12 15:14:51;;;;;;;23.05;15.05;;;;;;;0.14;100.00;98586.61;1810961;77;20972;-76
2022/12/12 15:17:41;;;;;;;18.23;14.90;;;;;;;0.16;100.00;98598.27;1801028;77;21046;-72
2022/12/12 15:20:16;;;;;;;21.93;15.75;;;;;;;0.10;100.00;98602.56;1810051;78;20971;-70
2022/12/12 15:22:58;;;;;;;22.70;15.10;;;;;;;0.11;100.00;98612.63;1811213;77;20999;-70
2022/12/12 15:25:32;;;;;;;21.82;15.93;;;;;;;0.15;100.00;98608.53;1801285;78;21181;-71
2022/12/12 15:27:59;;;;;;;23.25;15.40;;;;;;;0.24;100.00;98611.27;1786050;79;22169;-71
2022/12/12 15:30:36;;;;;;;28.80;16.82;;;;;;;0.30;100.00;98612.55;1783614;79;20993;-70
2022/12/12 15:33:04;;;;;;;20.72;16.50;;;;;;;0.31;100.00;98622.11;1780763;79;21014;-74
2022/12/12 15:35:31;;;;;;;18.55;15.05;;;;;;;0.33;100.00;98620.08;1776247;79;21029;-69
2022/12/12 15:38:00;;;;;;;21.07;16.10;;;;;;;0.36;100.00;98621.47;1761981;79;21143;-74
2022/12/12 15:40:31;;;;;;;24.82;17.62;;;;;;;0.41;100.00;98625.11;1762861;80;20992;-72
2022/12/12 15:43:15;;;;;;;22.50;16.15;;;;;;;0.46;100.00;98619.70;1758047;80;28198;-75
2022/12/12 15:45:56;;;;;;;29.80;18.23;;;;;;;0.44;100.00;98623.36;1757430;80;21003;-70
2022/12/12 15:48:30;;;;;;;22.95;17.23;;;;;;;0.42;100.00;98620.64;1756369;80;20988;-72
2022/12/12 15:51:02;;;;;;;23.90;18.67;;;;;;;0.48;100.00;98629.03;1751623;80;21918;-74
2022/12/12 15:53:38;;;;;;;22.75;16.52;;;;;;;0.51;100.00;98639.20;1774878;80;21022;-74
2022/12/12 15:56:11;;;;;;;22.37;16.65;;;;;;;0.57;100.00;98641.02;1756275;80;21153;-73
2022/12/12 15:58:44;;;;;;;22.67;14.98;;;;;;;0.61;100.00;98651.98;1732643;80;20987;-70
2022/12/12 16:01:20;;;;;;;;;;;;;;;0.64;100.00;98656.84;1789074;79;21598;-71
2022/12/12 16:03:57;;;;;;;23.57;15.65;;;;;;;0.59;99.65;98657.98;1734906;81;21742;-76
2022/12/12 16:06:33;;;;;;;24.87;16.73;;;;;;;0.56;99.50;98663.20;1739858;81;21055;-76
2022/12/12 16:09:19;;;;;;;23.10;16.87;;;;;;;0.55;99.11;98664.72;1708088;81;21563;-75
2022/12/12 16:11:54;;;;;;;21.95;14.95;;;;;;;0.51;98.83;98665.66;1739520;81;20981;-72
2022/12/12 16:14:40;;;;;;;23.98;16.62;;;;;;;0.49;98.67;98665.55;1692684;82;21079;-74
2022/12/12 16:17:22;;;;;;;20.17;14.90;;;;;;;0.45;98.33;98673.10;1733002;82;21269;-75
2022/12/12 16:20:06;;;;;;;18.40;15.05;;;;;;;0.44;98.15;98673.61;1732348;81;21117;-74